Time;durP1;ratioP1;P1;durP2;ratioP2;P2;SDS_P1;SDS_P2;PMS_P1;PMS_P2;Temp;Humidity;BMP_temperature;BMP_pressure;BME280_temperature;BME280_humidity;BME280_pressure;Samples;Min_cycle;Max_cycle;Signal;HPM_P1;HPM_P2
2023/10/27 00:00:54;;;;;;;5.30;1.60;;;;;;;13.04;72.40;99669.52;107600;1249;98341;-61
2023/10/27 00:03:37;;;;;;;3.90;1.50;;;;;;;12.96;72.67;99675.81;107459;1253;111785;-59
2023/10/27 00:06:05;;;;;;;2.70;1.30;;;;;;;12.86;73.41;99672.46;107460;1256;111289;-60
2023/10/27 00:08:33;;;;;;;1.50;1.00;;;;;;;12.75;73.70;99671.68;107447;1256;107597;-60
2023/10/27 00:11:06;;;;;;;7.80;1.10;;;;;;;12.63;73.93;99675.19;107487;1254;97836;-62
2023/10/27 00:13:34;;;;;;;7.40;1.20;;;;;;;12.55;73.91;99676.52;107643;1254;97784;-60
2023/10/27 00:16:10;;;;;;;5.20;1.30;;;;;;;12.48;74.18;99672.84;107637;1256;110898;-59
2023/10/27 00:18:38;;;;;;;4.00;1.20;;;;;;;12.38;74.32;99671.93;107436;1254;107720;-59
2023/10/27 00:21:07;;;;;;;1.60;1.00;;;;;;;12.32;74.46;99671.65;107452;1254;107875;-60
2023/10/27 00:23:36;;;;;;;4.80;1.30;;;;;;;12.30;74.63;99665.63;107342;1257;97890;-61
2023/10/27 00:26:05;;;;;;;6.00;1.50;;;;;;;12.28;74.77;99660.82;107514;1254;97713;-61
2023/10/27 00:28:33;;;;;;;8.40;1.40;;;;;;;12.27;75.12;99653.84;107553;1256;110753;-61
2023/10/27 00:31:01;;;;;;;12.70;1.30;;;;;;;12.26;75.12;99654.62;107507;1254;110979;-61
2023/10/27 00:33:30;;;;;;;6.10;1.30;;;;;;;12.26;75.28;99656.44;107497;1254;107527;-61
2023/10/27 00:35:58;;;;;;;5.60;1.20;;;;;;;12.27;75.48;99655.84;107472;1254;97842;-60
2023/10/27 00:38:26;;;;;;;3.70;1.20;;;;;;;12.25;75.52;99658.00;107568;1255;98454;-62
2023/10/27 00:40:55;;;;;;;2.70;1.20;;;;;;;12.19;75.49;99653.56;107514;1253;111255;-60
2023/10/27 00:43:23;;;;;;;3.60;1.10;;;;;;;12.16;75.53;99646.74;107611;1254;110511;-61
2023/10/27 00:45:52;;;;;;;12.70;1.20;;;;;;;12.10;75.87;99646.16;107608;1253;108459;-62
2023/10/27 00:48:21;;;;;;;5.30;1.20;;;;;;;12.00;76.10;99646.35;107475;1254;97889;-59
2023/10/27 00:50:50;;;;;;;3.50;1.20;;;;;;;11.94;76.01;99653.73;107500;1254;98371;-61
2023/10/27 00:53:22;;;;;;;1.80;1.00;;;;;;;11.88;76.31;99653.02;107484;1254;111765;-60
2023/10/27 00:55:51;;;;;;;8.10;1.80;;;;;;;11.83;76.13;99651.31;107390;1254;109049;-61
2023/10/27 00:58:22;;;;;;;3.20;1.10;;;;;;;11.80;76.16;99646.48;107507;1254;108021;-61
2023/10/27 01:00:52;;;;;;;4.70;1.10;;;;;;;11.79;76.27;99641.85;107474;1253;97820;-60
2023/10/27 01:03:21;;;;;;;3.80;1.30;;;;;;;11.76;76.16;99642.95;107453;1254;97889;-61
2023/10/27 01:05:49;;;;;;;5.40;1.20;;;;;;;11.72;76.22;99642.80;107602;1256;110819;-60
2023/10/27 01:08:17;;;;;;;4.90;1.00;;;;;;;11.66;76.18;99643.52;107533;1251;110187;-61
2023/10/27 01:10:46;;;;;;;4.20;1.20;;;;;;;11.61;76.46;99636.72;107451;1253;108331;-61
2023/10/27 01:13:14;;;;;;;2.00;1.10;;;;;;;11.56;76.48;99632.42;107384;1254;98016;-61
2023/10/27 01:15:42;;;;;;;4.80;1.40;;;;;;;11.51;76.49;99626.77;107436;1254;98413;-61
2023/10/27 01:18:11;;;;;;;3.80;1.20;;;;;;;11.53;76.70;99626.83;107562;1250;111853;-62
2023/10/27 01:20:39;;;;;;;2.80;1.40;;;;;;;11.52;76.88;99618.95;107477;1254;109317;-61
2023/10/27 01:23:08;;;;;;;2.60;1.30;;;;;;;11.50;76.92;99608.38;107484;1254;107963;-60
2023/10/27 01:25:36;;;;;;;2.30;1.10;;;;;;;11.48;76.88;99613.75;107583;1253;97969;-61
2023/10/27 01:28:06;;;;;;;4.70;1.20;;;;;;;11.46;77.00;99614.48;107525;1254;97775;-59
2023/10/27 01:30:35;;;;;;;6.60;1.70;;;;;;;11.42;76.86;99604.64;107442;1254;112087;-60
2023/10/27 01:33:03;;;;;;;4.30;1.30;;;;;;;11.42;77.26;99599.94;107403;1254;109891;-61
2023/10/27 01:35:32;;;;;;;7.50;1.10;;;;;;;11.41;77.31;99599.75;107597;1254;107824;-60
2023/10/27 01:38:01;;;;;;;5.40;1.20;;;;;;;11.35;77.39;99599.52;107530;1254;97888;-61
2023/10/27 01:40:29;;;;;;;5.00;1.80;;;;;;;11.28;77.49;99601.68;107453;1254;97746;-61
2023/10/27 01:42:57;;;;;;;3.80;1.10;;;;;;;11.23;77.52;99600.61;107622;1255;111025;-61
2023/10/27 01:45:25;;;;;;;4.50;1.30;;;;;;;11.18;78.07;99603.48;107455;1253;109929;-59
2023/10/27 01:47:54;;;;;;;4.80;1.40;;;;;;;11.15;77.83;99610.16;107457;1254;108505;-61
2023/10/27 01:50:22;;;;;;;4.80;1.30;;;;;;;11.13;77.98;99622.92;107609;1254;97913;-62
2023/10/27 01:52:51;;;;;;;1.90;1.20;;;;;;;11.10;78.17;99627.33;107412;1254;97887;-62
2023/10/27 01:55:19;;;;;;;3.30;1.20;;;;;;;11.09;78.50;99628.30;107426;1254;111689;-61
2023/10/27 01:57:49;;;;;;;2.40;1.00;;;;;;;11.06;78.86;99622.98;107505;1253;109578;-61
2023/10/27 02:00:17;;;;;;;3.50;1.40;;;;;;;11.03;79.16;99621.14;107367;1253;106996;-61
2023/10/27 02:02:46;;;;;;;7.90;1.10;;;;;;;10.98;79.03;99621.96;107489;1254;97951;-61
2023/10/27 02:05:15;;;;;;;5.40;2.50;;;;;;;10.96;78.82;99632.23;107595;1251;98466;-61
2023/10/27 02:07:43;;;;;;;4.90;1.00;;;;;;;10.96;78.83;99647.85;107473;1251;111819;-61
2023/10/27 02:10:11;;;;;;;3.20;1.20;;;;;;;10.95;78.68;99660.83;107518;1251;109131;-59
2023/10/27 02:12:40;;;;;;;6.80;1.30;;;;;;;10.95;78.63;99669.80;107479;1254;108772;-60
2023/10/27 02:15:09;;;;;;;8.60;1.30;;;;;;;10.96;78.42;99671.21;107544;1253;97831;-61
2023/10/27 02:17:39;;;;;;;7.50;1.60;;;;;;;10.97;78.36;99666.27;107725;1251;97893;-61
2023/10/27 02:20:08;;;;;;;7.20;1.70;;;;;;;11.00;78.41;99663.48;107562;1251;112596;-60
2023/10/27 02:22:40;;;;;;;4.70;1.20;;;;;;;11.02;78.31;99667.02;107589;1251;108144;-60
2023/10/27 02:25:09;;;;;;;8.10;1.40;;;;;;;11.03;78.25;99666.01;107472;1251;108039;-61
2023/10/27 02:27:41;;;;;;;4.90;1.30;;;;;;;11.04;78.19;99660.96;107474;1251;97914;-61
2023/10/27 02:30:10;;;;;;;4.80;1.30;;;;;;;11.04;78.03;99663.30;107493;1251;98415;-59
2023/10/27 02:32:38;;;;;;;9.70;1.80;;;;;;;11.05;78.06;99662.39;107480;1251;111016;-61
2023/10/27 02:35:07;;;;;;;3.40;1.10;;;;;;;11.06;77.90;99657.77;107476;1254;108988;-60
2023/10/27 02:37:35;;;;;;;3.90;1.50;;;;;;;11.04;77.63;99650.64;107543;1251;108307;-59
2023/10/27 02:40:04;;;;;;;11.20;1.20;;;;;;;11.00;77.46;99634.95;107482;1251;97908;-61
2023/10/27 02:42:32;;;;;;;4.20;1.70;;;;;;;10.98;77.57;99628.84;107639;1251;97966;-60
2023/10/27 02:45:01;;;;;;;6.70;1.70;;;;;;;10.96;77.56;99622.55;107469;1251;111017;-60
2023/10/27 02:47:29;;;;;;;6.80;1.70;;;;;;;10.95;77.43;99612.45;107453;1251;109680;-60
2023/10/27 02:49:57;;;;;;;2.70;1.40;;;;;;;10.93;77.21;99608.91;107453;1251;107378;-60
2023/10/27 02:52:26;;;;;;;10.20;1.50;;;;;;;10.88;77.15;99613.21;107526;1251;97832;-62
2023/10/27 02:54:54;;;;;;;4.90;1.50;;;;;;;10.84;77.30;99613.15;107534;1254;97726;-61
2023/10/27 02:57:23;;;;;;;8.20;1.60;;;;;;;10.83;77.21;99620.20;107578;1251;111943;-61
2023/10/27 02:59:51;;;;;;;3.10;1.50;;;;;;;10.78;76.99;99631.17;107467;1251;109968;-62
2023/10/27 03:02:19;;;;;;;3.00;1.40;;;;;;;10.71;76.85;99637.98;107462;1251;108800;-61
2023/10/27 03:04:49;;;;;;;5.90;1.30;;;;;;;10.66;76.74;99643.75;107469;1251;97850;-60
2023/10/27 03:07:17;;;;;;;3.00;1.10;;;;;;;10.60;76.42;99639.67;107477;1251;98392;-61
2023/10/27 03:09:45;;;;;;;4.20;1.60;;;;;;;10.57;76.43;99640.60;107591;1251;111124;-60
2023/10/27 03:12:16;;;;;;;4.90;2.30;;;;;;;10.54;76.53;99651.85;107579;1251;109622;-61
2023/10/27 03:14:45;;;;;;;1.90;1.30;;;;;;;10.52;76.86;99657.46;107642;1253;108627;-61
2023/10/27 03:17:13;;;;;;;8.40;1.80;;;;;;;10.48;77.16;99660.68;107535;1254;97855;-60
2023/10/27 03:19:41;;;;;;;2.50;1.50;;;;;;;10.44;77.15;99654.48;107629;1256;98371;-61
2023/10/27 03:22:10;;;;;;;10.40;4.10;;;;;;;10.39;77.46;99651.37;107630;1253;111007;-62
2023/10/27 03:24:39;;;;;;;7.10;2.40;;;;;;;10.36;77.43;99652.96;107617;1254;109677;-60
2023/10/27 03:27:07;;;;;;;4.80;1.60;;;;;;;10.36;77.65;99646.84;107448;1251;108263;-60
2023/10/27 03:29:35;;;;;;;7.70;3.00;;;;;;;10.37;77.87;99650.03;107634;1256;97906;-61
2023/10/27 03:32:06;;;;;;;7.30;1.40;;;;;;;10.39;78.10;99653.52;107638;1251;97852;-61
2023/10/27 03:34:35;;;;;;;11.30;2.90;;;;;;;10.43;78.10;99660.13;107636;1251;111625;-61
2023/10/27 03:37:04;;;;;;;8.30;1.60;;;;;;;10.46;78.13;99662.84;107582;1253;109656;-61
2023/10/27 03:39:32;;;;;;;15.50;1.60;;;;;;;10.48;78.16;99663.17;107642;1255;108269;-63
2023/10/27 03:42:01;;;;;;;7.30;1.30;;;;;;;10.49;78.40;99656.27;107592;1252;97889;-60
2023/10/27 03:44:29;;;;;;;7.60;1.60;;;;;;;10.48;78.14;99661.90;107581;1253;98173;-60
2023/10/27 03:46:58;;;;;;;14.00;1.90;;;;;;;10.47;78.40;99656.34;107637;1254;111896;-61
2023/10/27 03:49:27;;;;;;;10.40;1.90;;;;;;;10.45;78.67;99652.97;107640;1253;109076;-60
2023/10/27 03:51:56;;;;;;;6.50;1.90;;;;;;;10.43;78.55;99651.41;107628;1254;108628;-61
2023/10/27 03:54:25;;;;;;;6.60;2.00;;;;;;;10.43;78.66;99637.58;107603;1253;97829;-62
2023/10/27 03:56:53;;;;;;;3.20;1.50;;;;;;;10.42;78.70;99625.30;107663;1253;97998;-61
2023/10/27 03:59:21;;;;;;;7.70;1.50;;;;;;;10.38;78.46;99613.54;107609;1253;111150;-61
2023/10/27 04:01:50;;;;;;;8.50;1.70;;;;;;;10.38;78.70;99606.70;107655;1253;109310;-61
2023/10/27 04:04:18;;;;;;;4.70;1.50;;;;;;;10.42;78.93;99599.19;107608;1255;108294;-59
2023/10/27 04:06:46;;;;;;;6.80;1.50;;;;;;;10.43;78.95;99592.04;107591;1251;97857;-61
2023/10/27 04:09:15;;;;;;;3.20;1.90;;;;;;;10.46;79.10;99595.27;107619;1252;97921;-61
2023/10/27 04:11:43;;;;;;;3.30;1.60;;;;;;;10.48;79.14;99594.84;107628;1251;112263;-61
2023/10/27 04:14:11;;;;;;;9.60;2.00;;;;;;;10.46;79.05;99596.50;107623;1251;108629;-60
2023/10/27 04:16:39;;;;;;;8.50;1.60;;;;;;;10.46;78.98;99599.23;107546;1251;109016;-61
2023/10/27 04:19:07;;;;;;;5.40;1.80;;;;;;;10.44;78.96;99602.50;107598;1251;97930;-61
2023/10/27 04:21:36;;;;;;;11.70;3.80;;;;;;;10.42;78.86;99605.42;107593;1251;98377;-60
2023/10/27 04:24:05;;;;;;;11.40;2.40;;;;;;;10.42;79.07;99605.91;107567;1251;112081;-59
2023/10/27 04:26:33;;;;;;;5.30;1.60;;;;;;;10.44;79.17;99609.02;107596;1254;108855;-61
2023/10/27 04:29:01;;;;;;;9.90;2.10;;;;;;;10.43;79.12;99612.27;107601;1251;107941;-60
2023/10/27 04:31:30;;;;;;;12.20;3.00;;;;;;;10.45;79.45;99614.05;107596;1251;97746;-62
2023/10/27 04:33:58;;;;;;;11.90;4.10;;;;;;;10.46;79.40;99615.73;107573;1250;98098;-59
2023/10/27 04:36:27;;;;;;;16.50;5.70;;;;;;;10.44;79.32;99613.38;107636;1251;112295;-61
2023/10/27 04:38:55;;;;;;;14.50;4.40;;;;;;;10.45;79.34;99613.47;107637;1251;109469;-60
2023/10/27 04:41:24;;;;;;;17.40;4.50;;;;;;;10.47;79.39;99614.66;107588;1251;108626;-60
2023/10/27 04:43:52;;;;;;;17.00;5.00;;;;;;;10.52;79.55;99612.45;107626;1251;97989;-60
2023/10/27 04:46:21;;;;;;;18.00;4.40;;;;;;;10.56;79.54;99609.67;107621;1251;97730;-59
2023/10/27 04:48:49;;;;;;;4.50;3.10;;;;;;;10.59;79.42;99607.70;107632;1251;112615;-60
2023/10/27 04:51:17;;;;;;;5.80;3.10;;;;;;;10.62;79.48;99612.20;107572;1254;109752;-60
2023/10/27 04:53:46;;;;;;;10.00;3.70;;;;;;;10.66;79.43;99609.27;107579;1251;109109;-61
2023/10/27 04:56:16;;;;;;;20.10;3.80;;;;;;;10.70;79.35;99602.67;107398;1251;97842;-60
2023/10/27 04:58:44;;;;;;;20.60;3.90;;;;;;;10.73;79.28;99600.52;107665;1249;98473;-61
2023/10/27 05:01:13;;;;;;;19.70;3.90;;;;;;;10.76;79.21;99595.69;107566;1251;111399;-61
2023/10/27 05:03:41;;;;;;;14.50;3.30;;;;;;;10.79;79.21;99597.44;107624;1253;111701;-60
2023/10/27 05:06:10;;;;;;;14.40;4.10;;;;;;;10.83;79.06;99595.90;107571;1251;108655;-61
2023/10/27 05:08:38;;;;;;;7.80;3.60;;;;;;;10.84;78.96;99594.49;107403;1251;97926;-60
2023/10/27 05:11:06;;;;;;;9.20;3.30;;;;;;;10.86;78.81;99603.27;107604;1255;97727;-62
2023/10/27 05:13:35;;;;;;;34.70;6.80;;;;;;;10.86;78.79;99615.06;107610;1251;111306;-59
2023/10/27 05:16:04;;;;;;;22.40;4.00;;;;;;;10.85;78.72;99619.81;107645;1251;108787;-60
2023/10/27 05:18:32;;;;;;;30.70;4.20;;;;;;;10.86;78.72;99621.70;107641;1251;107755;-62
2023/10/27 05:21:01;;;;;;;13.10;3.50;;;;;;;10.89;78.72;99627.27;107580;1252;98354;-60
2023/10/27 05:23:30;;;;;;;11.70;3.80;;;;;;;10.95;78.66;99627.56;107615;1252;97924;-60
2023/10/27 05:25:58;;;;;;;16.60;3.70;;;;;;;11.00;78.78;99625.71;107657;1251;112026;-58
2023/10/27 05:28:26;;;;;;;16.00;3.20;;;;;;;11.09;78.90;99630.80;107676;1251;109480;-59
2023/10/27 05:30:55;;;;;;;15.60;3.90;;;;;;;11.19;78.85;99632.98;107614;1253;108056;-60
2023/10/27 05:33:23;;;;;;;12.40;4.50;;;;;;;11.28;78.78;99627.86;107397;1253;97881;-61
2023/10/27 05:35:52;;;;;;;19.70;3.50;;;;;;;11.36;78.62;99626.46;107582;1251;98358;-60
2023/10/27 05:38:20;;;;;;;14.80;3.80;;;;;;;11.44;78.46;99628.45;107640;1255;112037;-60
2023/10/27 05:40:49;;;;;;;11.10;3.30;;;;;;;11.54;78.41;99629.93;107617;1251;109245;-59
2023/10/27 05:43:17;;;;;;;14.20;3.80;;;;;;;11.66;78.48;99631.15;107554;1251;107384;-59
2023/10/27 05:45:46;;;;;;;16.00;4.30;;;;;;;11.77;78.48;99636.02;107616;1251;97816;-61
2023/10/27 05:48:14;;;;;;;24.80;4.00;;;;;;;11.88;78.40;99636.40;107472;1251;98367;-61
2023/10/27 05:50:42;;;;;;;19.10;4.10;;;;;;;12.00;78.44;99627.21;107552;1250;112067;-59
2023/10/27 05:53:11;;;;;;;16.00;4.00;;;;;;;12.11;78.25;99628.46;107629;1251;109001;-59
2023/10/27 05:55:39;;;;;;;17.90;3.90;;;;;;;12.21;78.24;99634.89;107604;1252;107849;-60
2023/10/27 05:58:08;;;;;;;9.10;3.20;;;;;;;12.30;78.19;99636.36;107568;1250;97847;-60
2023/10/27 06:00:37;;;;;;;18.80;3.30;;;;;;;12.40;77.96;99633.63;107546;1251;97713;-61
2023/10/27 06:03:05;;;;;;;19.30;3.70;;;;;;;12.47;77.90;99634.40;107580;1252;111761;-61
2023/10/27 06:05:34;;;;;;;13.20;3.80;;;;;;;12.51;77.72;99631.05;107666;1255;109980;-59
2023/10/27 06:08:03;;;;;;;17.70;4.00;;;;;;;12.57;77.61;99630.80;107615;1252;108529;-59
2023/10/27 06:10:32;;;;;;;17.60;4.10;;;;;;;12.64;77.66;99632.83;107608;1251;97827;-60
2023/10/27 06:13:00;;;;;;;17.60;4.40;;;;;;;12.74;77.76;99628.48;107618;1251;97839;-61
2023/10/27 06:15:28;;;;;;;10.80;3.60;;;;;;;12.83;77.57;99635.30;107581;1251;111374;-60
2023/10/27 06:17:56;;;;;;;13.50;3.30;;;;;;;12.93;77.48;99629.16;107628;1253;109604;-60
2023/10/27 06:20:24;;;;;;;13.80;4.00;;;;;;;13.00;77.42;99629.21;107611;1251;107369;-59
2023/10/27 06:22:53;;;;;;;23.20;4.30;;;;;;;13.09;77.41;99624.62;107614;1251;97851;-59
2023/10/27 06:25:25;;;;;;;12.40;4.50;;;;;;;13.17;77.45;99624.39;107677;1251;97806;-59
2023/10/27 06:27:54;;;;;;;11.30;4.30;;;;;;;13.22;77.26;99626.02;107587;1253;111874;-60
2023/10/27 06:30:23;;;;;;;7.30;3.50;;;;;;;13.29;77.45;99630.58;107590;1251;108918;-59
2023/10/27 06:32:51;;;;;;;5.80;3.30;;;;;;;13.35;77.25;99631.21;107450;1251;107798;-59
2023/10/27 06:35:20;;;;;;;7.70;3.10;;;;;;;13.42;77.24;99631.29;107617;1251;97839;-60
2023/10/27 06:37:48;;;;;;;19.00;4.20;;;;;;;13.51;77.14;99627.67;107458;1251;97843;-61
2023/10/27 06:40:17;;;;;;;16.10;3.70;;;;;;;13.56;76.85;99629.10;107455;1257;112297;-60
2023/10/27 06:42:46;;;;;;;9.80;3.20;;;;;;;13.65;76.94;99620.90;107596;1251;109854;-61
2023/10/27 06:45:14;;;;;;;13.10;3.40;;;;;;;13.74;76.80;99620.21;107589;1251;107177;-60
2023/10/27 06:47:43;;;;;;;16.20;4.00;;;;;;;13.81;76.81;99615.24;107610;1251;97945;-60
2023/10/27 06:50:11;;;;;;;22.00;3.70;;;;;;;13.88;76.86;99613.34;107647;1251;97992;-61
2023/10/27 06:52:40;;;;;;;14.80;3.50;;;;;;;13.94;76.94;99612.18;107629;1251;112028;-59
2023/10/27 06:55:08;;;;;;;10.40;3.50;;;;;;;14.00;76.97;99614.00;107563;1250;108563;-61
2023/10/27 06:57:37;;;;;;;15.30;3.10;;;;;;;14.06;77.00;99610.06;107552;1251;108182;-59
2023/10/27 07:00:07;;;;;;;13.60;3.10;;;;;;;14.13;77.16;99609.33;107579;1251;97936;-59
2023/10/27 07:02:35;;;;;;;7.50;3.40;;;;;;;14.19;77.13;99611.19;107545;1251;97697;-59
2023/10/27 07:05:24;;;;;;;6.00;2.70;;;;;;;14.24;77.19;99613.95;107634;1251;112235;-61
2023/10/27 07:07:52;;;;;;;9.20;3.00;;;;;;;14.30;77.08;99613.85;107481;1251;108576;-58
2023/10/27 07:10:21;;;;;;;11.40;3.50;;;;;;;14.32;76.98;99613.01;107392;1253;108178;-60
2023/10/27 07:12:50;;;;;;;14.70;4.10;;;;;;;14.32;76.70;99615.71;107452;1252;97852;-60
2023/10/27 07:15:19;;;;;;;13.40;4.00;;;;;;;14.30;76.65;99611.23;107585;1251;98456;-60
2023/10/27 07:17:48;;;;;;;16.40;4.30;;;;;;;14.31;76.54;99614.58;107486;1251;111835;-60
2023/10/27 07:20:16;;;;;;;14.30;3.80;;;;;;;14.33;76.82;99617.43;107513;1251;109107;-61
2023/10/27 07:22:45;;;;;;;9.70;4.40;;;;;;;14.37;76.73;99614.50;107464;1253;108480;-61
2023/10/27 07:25:14;;;;;;;16.50;6.60;;;;;;;14.42;76.65;99612.38;107331;1253;97922;-62
2023/10/27 07:27:43;;;;;;;15.10;6.20;;;;;;;14.50;76.82;99604.23;107454;1252;97928;-60
2023/10/27 07:30:12;;;;;;;17.20;5.30;;;;;;;14.61;76.92;99605.97;107470;1251;111885;-61
2023/10/27 07:32:40;;;;;;;11.80;4.00;;;;;;;14.74;76.66;99600.52;107484;1253;108824;-61
2023/10/27 07:35:09;;;;;;;7.70;3.60;;;;;;;14.88;76.60;99596.54;107534;1253;108277;-60
2023/10/27 07:37:37;;;;;;;11.60;4.20;;;;;;;15.05;76.39;99590.62;107477;1253;97852;-60
2023/10/27 07:40:07;;;;;;;9.70;3.90;;;;;;;15.22;76.00;99588.27;107455;1251;98428;-60
2023/10/27 07:42:35;;;;;;;12.90;4.50;;;;;;;15.43;75.87;99582.21;107522;1251;112227;-60
2023/10/27 07:45:04;;;;;;;17.50;4.90;;;;;;;15.64;75.69;99582.45;107568;1251;108837;-60
2023/10/27 07:47:33;;;;;;;11.20;3.70;;;;;;;15.84;75.50;99583.35;107512;1252;108732;-60
2023/10/27 07:50:01;;;;;;;23.40;5.10;;;;;;;16.01;75.33;99582.27;107534;1253;97819;-61
2023/10/27 07:52:30;;;;;;;22.10;5.40;;;;;;;16.19;75.17;99577.88;107526;1251;97713;-61
2023/10/27 07:55:00;;;;;;;18.70;5.70;;;;;;;16.35;74.57;99574.17;107494;1251;111167;-60
2023/10/27 07:57:28;;;;;;;23.70;5.90;;;;;;;16.51;74.27;99572.55;107527;1252;108747;-60
2023/10/27 07:59:56;;;;;;;17.20;5.00;;;;;;;16.64;74.02;99575.55;107336;1252;108527;-60
2023/10/27 08:02:25;;;;;;;14.30;4.50;;;;;;;16.77;73.79;99570.73;107473;1253;98495;-60
2023/10/27 08:04:53;;;;;;;14.70;4.80;;;;;;;16.91;73.69;99571.30;107397;1253;97852;-61
2023/10/27 08:07:21;;;;;;;16.60;4.30;;;;;;;17.05;73.52;99568.83;107501;1251;111936;-60
2023/10/27 08:09:50;;;;;;;17.80;4.50;;;;;;;17.16;73.09;99562.96;107571;1251;109866;-60
2023/10/27 08:12:20;;;;;;;20.50;4.90;;;;;;;17.25;72.69;99562.89;107520;1253;107430;-60
2023/10/27 08:14:49;;;;;;;21.50;5.50;;;;;;;17.36;72.36;99566.19;107389;1253;97910;-60
2023/10/27 08:17:17;;;;;;;18.60;3.10;;;;;;;17.45;71.72;99570.15;107411;1251;97897;-61
2023/10/27 08:19:45;;;;;;;6.00;2.30;;;;;;;17.50;71.05;99574.05;107487;1251;111944;-61
2023/10/27 08:22:14;;;;;;;8.30;2.00;;;;;;;17.58;70.05;99573.35;107548;1252;109189;-61
2023/10/27 08:24:42;;;;;;;9.90;2.30;;;;;;;17.65;69.89;99568.61;107485;1251;108547;-60
2023/10/27 08:27:11;;;;;;;12.60;5.10;;;;;;;17.80;69.96;99566.87;107426;1251;98066;-60
2023/10/27 08:29:40;;;;;;;21.50;3.50;;;;;;;17.95;69.74;99562.48;107519;1252;98360;-63
2023/10/27 08:32:08;;;;;;;19.50;3.10;;;;;;;18.09;69.61;99560.61;107514;1251;111060;-60
2023/10/27 08:34:36;;;;;;;10.30;2.50;;;;;;;18.23;69.31;99558.95;107509;1251;109651;-61
2023/10/27 08:37:05;;;;;;;12.30;2.20;;;;;;;18.32;68.73;99554.94;107372;1253;107766;-61
2023/10/27 08:39:34;;;;;;;11.00;2.60;;;;;;;18.42;68.08;99552.04;107595;1252;97829;-61
2023/10/27 08:42:04;;;;;;;10.70;2.00;;;;;;;18.51;67.77;99544.58;107596;1250;98561;-62
2023/10/27 08:44:34;;;;;;;10.60;2.20;;;;;;;18.65;67.31;99542.01;107462;1250;111612;-61
2023/10/27 08:47:05;;;;;;;8.70;2.30;;;;;;;18.82;66.71;99539.67;107501;1251;110059;-61
2023/10/27 08:49:34;;;;;;;20.50;2.70;;;;;;;19.05;66.06;99537.30;107510;1251;108109;-60
2023/10/27 08:52:04;;;;;;;16.80;3.00;;;;;;;19.37;65.74;99541.30;107508;1251;97818;-61
2023/10/27 08:54:32;;;;;;;24.10;2.80;;;;;;;19.73;65.21;99534.89;107554;1253;97937;-62
2023/10/27 08:57:02;;;;;;;12.10;2.70;;;;;;;20.05;63.74;99532.28;107417;1253;111732;-61
2023/10/27 08:59:31;;;;;;;13.90;3.20;;;;;;;20.42;61.92;99529.94;107478;1253;109930;-61
2023/10/27 09:02:01;;;;;;;13.10;3.00;;;;;;;20.90;60.52;99521.81;107490;1251;108339;-62
2023/10/27 09:04:31;;;;;;;14.20;2.30;;;;;;;21.31;57.04;99516.55;107558;1251;97851;-61
2023/10/27 09:07:00;;;;;;;9.10;2.50;;;;;;;21.62;54.81;99507.27;107559;1249;97768;-61
2023/10/27 09:09:28;;;;;;;12.20;2.40;;;;;;;21.77;52.90;99495.46;107554;1253;111945;-60
2023/10/27 09:11:57;;;;;;;7.80;1.70;;;;;;;21.84;52.08;99494.14;107477;1252;109648;-62
2023/10/27 09:14:33;;;;;;;11.40;2.20;;;;;;;21.91;51.41;99490.00;107494;1251;108478;-61
2023/10/27 09:17:10;;;;;;;16.60;1.80;;;;;;;22.12;50.02;99483.66;107477;1251;97825;-61
2023/10/27 09:19:39;;;;;;;7.70;1.50;;;;;;;22.48;50.18;99474.82;107607;1251;98405;-61
2023/10/27 09:22:15;;;;;;;3.90;1.20;;;;;;;22.77;48.05;99471.00;107499;1251;111772;-60
2023/10/27 09:24:44;;;;;;;4.00;1.20;;;;;;;23.09;48.57;99464.20;107583;1251;108847;-61
2023/10/27 09:27:13;;;;;;;14.60;1.30;;;;;;;23.42;45.28;99468.55;107514;1251;106659;-61
2023/10/27 09:29:42;;;;;;;8.70;1.10;;;;;;;23.72;43.92;99466.14;107504;1255;97857;-61
2023/10/27 09:32:25;;;;;;;6.30;1.20;;;;;;;23.92;43.21;99455.83;107564;1253;97788;-62
2023/10/27 09:35:13;;;;;;;8.60;1.20;;;;;;;24.26;43.32;99460.56;107469;1251;112238;-62
2023/10/27 09:37:42;;;;;;;6.00;1.20;;;;;;;24.93;42.78;99459.35;107555;1253;109931;-61
2023/10/27 09:40:13;;;;;;;12.10;1.20;;;;;;;25.64;43.01;99454.88;107607;1255;106729;-61
2023/10/27 09:42:43;;;;;;;3.30;1.20;;;;;;;26.40;40.82;99450.66;107517;1253;97834;-62
2023/10/27 09:45:13;;;;;;;8.30;1.90;;;;;;;27.04;39.24;99444.02;107606;1255;97833;-62
2023/10/27 09:47:47;;;;;;;5.00;1.30;;;;;;;27.72;37.97;99438.98;107566;1255;110553;-63
2023/10/27 09:50:24;;;;;;;5.60;1.60;;;;;;;28.25;37.04;99433.78;107578;1253;109308;-62
2023/10/27 09:52:56;;;;;;;5.70;1.40;;;;;;;28.56;36.84;99427.73;107543;1251;108211;-62
2023/10/27 09:55:27;;;;;;;5.50;1.20;;;;;;;28.86;36.81;99417.45;107464;1251;97919;-61
2023/10/27 09:57:57;;;;;;;9.10;1.40;;;;;;;29.31;37.07;99410.84;107415;1253;98397;-62
2023/10/27 10:00:28;;;;;;;3.90;1.50;;;;;;;29.80;36.55;99408.24;107477;1253;110966;-62
2023/10/27 10:02:58;;;;;;;3.60;1.30;;;;;;;30.31;34.16;99407.04;107499;1252;110946;-61
2023/10/27 10:05:27;;;;;;;7.20;1.40;;;;;;;30.57;32.07;99397.54;107530;1253;108182;-63
2023/10/27 10:07:56;;;;;;;1.30;0.70;;;;;;;30.80;31.39;99397.86;107503;1252;97812;-61
2023/10/27 10:10:29;;;;;;;7.00;1.00;;;;;;;30.92;29.90;99391.13;107484;1253;97759;-62
2023/10/27 10:13:02;;;;;;;;;;;;;;;30.87;29.98;99381.19;107293;1251;271236;-62
2023/10/27 10:15:33;;;;;;;10.20;1.20;;;;;;;30.88;28.78;99382.49;107512;1251;110880;-63
2023/10/27 10:18:23;;;;;;;7.40;1.10;;;;;;;30.72;29.08;99374.85;107498;1252;108148;-63
2023/10/27 10:21:02;;;;;;;2.50;0.80;;;;;;;30.23;30.25;99371.82;107361;1253;97855;-62
2023/10/27 10:23:44;;;;;;;2.30;0.70;;;;;;;30.00;31.59;99365.14;107543;1251;98508;-62
2023/10/27 10:26:12;;;;;;;2.90;0.90;;;;;;;29.67;31.27;99363.98;107487;1252;112111;-62
2023/10/27 10:28:41;;;;;;;7.70;1.40;;;;;;;29.18;31.69;99361.30;107505;1253;109405;-61
2023/10/27 10:31:10;;;;;;;15.70;1.60;;;;;;;28.81;32.30;99355.33;107605;1251;108544;-61
2023/10/27 10:33:40;;;;;;;8.80;1.70;;;;;;;28.40;32.41;99353.04;107535;1251;97854;-62
2023/10/27 10:36:18;;;;;;;5.40;1.00;;;;;;;28.06;32.16;99344.55;107602;1251;97839;-62
2023/10/27 10:38:58;;;;;;;3.20;0.90;;;;;;;27.72;33.59;99336.15;107434;1254;111448;-61
2023/10/27 10:41:41;;;;;;;6.40;1.10;;;;;;;27.56;33.95;99333.44;107560;1252;109652;-62
2023/10/27 10:44:14;;;;;;;5.00;1.20;;;;;;;27.38;34.51;99337.35;107480;1251;108673;-63
2023/10/27 10:46:44;;;;;;;6.60;1.70;;;;;;;27.17;34.32;99334.08;107478;1251;97922;-61
2023/10/27 10:49:32;;;;;;;7.50;1.50;;;;;;;26.91;34.69;99326.55;107571;1251;97812;-61
2023/10/27 10:52:02;;;;;;;8.30;1.10;;;;;;;26.66;34.90;99316.70;107512;1255;111018;-62
2023/10/27 10:54:32;;;;;;;7.70;1.10;;;;;;;26.44;35.10;99309.13;107512;1252;109948;-62
2023/10/27 10:57:08;;;;;;;9.60;2.30;;;;;;;26.25;35.15;99304.17;107535;1253;108350;-62
2023/10/27 10:59:37;;;;;;;6.60;1.50;;;;;;;26.11;35.03;99303.84;107509;1253;97901;-63
2023/10/27 11:02:07;;;;;;;10.50;1.20;;;;;;;25.96;35.81;99297.21;107511;1254;98389;-62
2023/10/27 11:04:35;;;;;;;12.60;1.30;;;;;;;25.93;36.32;99302.22;107444;1254;112231;-63
2023/10/27 11:07:16;;;;;;;4.80;1.50;;;;;;;25.90;36.13;99302.27;107500;1251;110210;-63
2023/10/27 11:09:44;;;;;;;3.00;1.00;;;;;;;25.84;35.41;99297.04;107503;1253;109012;-61
2023/10/27 11:12:25;;;;;;;3.60;1.10;;;;;;;25.79;35.54;99287.34;107360;1252;97788;-62
2023/10/27 11:14:54;;;;;;;4.60;0.90;;;;;;;25.78;34.14;99285.79;107566;1253;97841;-61
2023/10/27 11:17:22;;;;;;;3.00;1.20;;;;;;;25.71;34.60;99281.70;107526;1251;112140;-62
2023/10/27 11:19:54;;;;;;;7.00;1.00;;;;;;;25.75;34.18;99281.77;107510;1251;109284;-62
2023/10/27 11:22:24;;;;;;;8.90;1.50;;;;;;;25.87;33.60;99280.73;107417;1253;108151;-62
2023/10/27 11:24:53;;;;;;;2.30;0.90;;;;;;;25.97;33.00;99273.12;107537;1251;97718;-61
2023/10/27 11:27:26;;;;;;;4.30;0.80;;;;;;;25.93;32.66;99269.55;107548;1253;97704;-61